Los Colorados, Argentina
Current Conditions -  °F | °C
As of 10:00 PM on Saturday 22 Nov 2014 (Local Time) from SACO Reporting Station
Clear Clear  
Wind Chill: 61°   Ceiling: Unl
Heat Index: 61°   Visibility: 6mi
Dew Point: 50°   Wind: 7mph
Humidity: 68%   Direction: 360°N
Pressure: 30"   Gusts: NA
Location:  30.06°S, 67.12°W
Report Text: SACO 230100Z 36006KT CAVOK 16/10 Q1016
Loading
Personal Weather Stations






























Interactive Weather Map New forecast layout! Learn more

10-Day Weather Forecast

Advertisements
Track Severe Weather on mobile